ADDS METAR Data INFO
IDs: Format: Raw Decoded Include TAF

Data at: 0644 UTC 23 Feb 2018

KASL 230635Z AUTO 31004KT 10SM SCT005 OVC012 12/11 A3025 RMK AO1 T01150105
KASL 230615Z AUTO 02003KT 10SM SCT003 OVC012 12/11 A3025 RMK AO1 T01150105
KASL 230555Z AUTO 00000KT 10SM SCT003 SCT008 OVC012 12/11 A3025 RMK AO1 P0009 60024 T01150105 10127 20115 401270100
KASL 230535Z AUTO 35004KT 7SM OVC003 12/11 A3024 RMK AO1 P0008 T01150105
KASL 230515Z AUTO 34003KT 4SM OVC003 12/11 A3026 RMK AO1 P0004 T01150105
KASL 230455Z AUTO 00000KT 10SM OVC003 12/11 A3025 RMK AO1 T01150105
KASL 230435Z AUTO 00000KT 7SM OVC003 12/11 A3025 RMK AO1 T01150105
KASL 230415Z AUTO 00000KT 7SM OVC003 12/11 A3025 RMK AO1 T01150105
KASL 230355Z AUTO 00000KT 7SM OVC003 12/11 A3024 RMK AO1 P0001 T01150105
KASL 230335Z AUTO 34003KT 10SM OVC003 12/11 A3025 RMK AO1 P0001 T01150105
KASL 230315Z AUTO 35004KT 4SM OVC003 12/11 A3025 RMK AO1 T01150105
KASL 230255Z AUTO 02003KT 2SM OVC003 12/11 A3024 RMK AO1 P0004 60014 T01200110
KASL 230235Z AUTO 00000KT 7SM OVC003 12/11 A3024 RMK AO1 T01170107
KASL 230215Z AUTO 01003KT 10SM OVC005 13/12 A3023 RMK AO1 T01270117
KASL 230155Z AUTO 34003KT 10SM BKN003 OVC008 13/12 A3022 RMK AO1 P0008 T01270117
KASL 230135Z AUTO 00000KT 4SM BKN006 OVC012 13/12 A3021 RMK AO1 P0007 T01270117
KASL 230115Z AUTO 00000KT 5SM OVC004 13/12 A3021 RMK AO1 P0003 T01270117
KASL 230055Z AUTO 34003KT 10SM OVC004 13/12 A3021 RMK AO1 P0002 T01270117
KASL 230035Z AUTO 00000KT 10SM OVC004 13/12 A3020 RMK AO1 P0002 T01270117
KASL 230015Z AUTO 00000KT 10SM OVC007 13/12 A3019 RMK AO1 T01270117
KASL 222355Z AUTO 00000KT 10SM OVC009 13/12 A3018 RMK AO1 P0011 60021 T01270117 10127 20107
KASL 222335Z AUTO 00000KT 4SM BKN005 OVC010 13/12 A3018 RMK AO1 P0009 T01270117
KASL 222315Z AUTO 00000KT 1 1/4SM OVC003 13/12 A3019 RMK AO1 P0004 T01270117
KASL 222255Z AUTO 00000KT 7SM BKN003 OVC007 13/12 A3017 RMK AO1 P0006 T01270117
KASL 222235Z AUTO 00000KT 3SM BKN003 OVC007 13/12 A3017 RMK AO1 P0005 T01270117
KASL 222215Z AUTO 00000KT 1 1/2SM OVC003 12/11 A3018 RMK AO1 P0002 T01210111
KASL 222155Z AUTO 00000KT 1 1/4SM OVC003 12/11 A3018 RMK AO1 T01220112
KASL 222135Z AUTO 06003KT 1 1/2SM OVC003 12/11 A3018 RMK AO1 T01150105
KASL 222115Z AUTO 00000KT 3SM OVC003 12/11 A3019 RMK AO1 T01190109
KASL 222055Z AUTO 09004KT 2SM OVC003 12/11 A3020 RMK AO1 P0001 60004 T01170107
KASL 222035Z AUTO 10003KT 2 1/2SM OVC003 12/11 A3020 RMK AO1 P0001 T01150105
KASL 222015Z AUTO 10003KT 2 1/2SM OVC003 12/11 A3021 RMK AO1 P0001 T01150105
KASL 221955Z AUTO 00000KT 1 1/2SM OVC003 12/11 A3023 RMK AO1 P0002 T01150105
KASL 221935Z AUTO 07004KT 1 1/2SM OVC003 12/11 A3024 RMK AO1 P0001 T01150105
KASL 221915Z AUTO 00000KT 3SM OVC003 12/11 A3025 RMK AO1 T01150105
KASL 221855Z AUTO 08004KT 3SM OVC003 12/11 A3025 RMK AO1 P0001 T01150105
KASL 221835Z AUTO 00000KT 1 3/4SM OVC003 12/11 A3025 RMK AO1 T01150105
KASL 221815Z AUTO 08005KT 1 1/4SM OVC003 12/11 A3026 RMK AO1 T01150105
KASL 221755Z AUTO 09003KT 1SM OVC003 11/10 A3027 RMK AO1 60002 T01070097 10107 20100
KASL 221735Z AUTO 09003KT 1 1/4SM OVC003 10/09 A3029 RMK AO1 T01000090
KASL 221715Z AUTO 11003KT 1 3/4SM OVC003 11/10 A3029 RMK AO1 T01070097
KASL 221655Z AUTO 09004KT 2 1/2SM OVC003 10/09 A3028 RMK AO1 T01000090
KASL 221635Z AUTO 07004KT 4SM OVC003 10/09 A3028 RMK AO1 T01000090
KASL 221615Z AUTO 08004KT 3SM OVC003 10/09 A3028 RMK AO1 T01000091
KASL 221555Z AUTO 00000KT 7SM OVC003 10/09 A3029 RMK AO1 P0002 T01000091
KASL 221535Z AUTO 00000KT 2SM OVC003 10/09 A3028 RMK AO1 P0001 T01000091
KASL 221515Z AUTO 08004KT 1 3/4SM OVC003 10/09 A3028 RMK AO1 T01000091
KASL 221455Z AUTO 09005KT 1 1/4SM OVC003 10/09 A3029 RMK AO1 T01000091
KASL 221435Z AUTO 01003KT 1 1/4SM OVC003 10/09 A3029 RMK AO1 T01000091
KASL 221415Z AUTO 00000KT 1 3/4SM OVC003 10/09 A3029 RMK AO1 T01000090
KASL 221355Z AUTO 04004KT 3SM OVC003 10/09 A3028 RMK AO1 T01000090
KASL 221335Z AUTO 00000KT 3SM OVC003 10/09 A3027 RMK AO1 T01000090
KASL 221315Z AUTO 03003KT 2SM OVC003 10/09 A3027 RMK AO1 T01000090
KASL 221255Z AUTO 00000KT 2 1/2SM OVC003 10/09 A3028 RMK AO1 T01000090
KASL 221235Z AUTO 00000KT 1 1/2SM OVC003 10/09 A3029 RMK AO1 T01000090
KASL 221215Z AUTO 00000KT 1 1/2SM OVC003 10/09 A3028 RMK AO1 T01000090
KASL 221155Z AUTO 00000KT 1 1/2SM OVC003 10/09 A3026 RMK AO1 60001 70243 T01000090 10100 20100
KASL 221135Z AUTO 00000KT 2SM OVC003 10/09 A3025 RMK AO1 VIS 1V3 T01000090
KASL 221115Z AUTO 00000KT 10SM OVC003 10/09 A3026 RMK AO1 T01000090
KASL 221055Z AUTO 00000KT 2 1/2SM OVC003 10/09 A3026 RMK AO1 T01000090
KASL 221035Z AUTO 00000KT 10SM BKN005 OVC015 10/09 A3026 RMK AO1 T01000090
KASL 221015Z AUTO 00000KT 10SM SCT005 OVC015 10/09 A3025 RMK AO1 T01000090
KASL 220955Z AUTO 00000KT 10SM BKN005 OVC015 10/09 A3025 RMK AO1 T01000090
KASL 220935Z AUTO 00000KT 10SM BKN007 OVC017 10/09 A3025 RMK AO1 T01000090
KASL 220915Z AUTO 00000KT 10SM SCT005 SCT011 OVC017 10/09 A3025 RMK AO1 T01000090
KASL 220855Z AUTO 00000KT 10SM OVC007 10/09 A3024 RMK AO1 60001 T01000090
KASL 220835Z AUTO 00000KT 10SM OVC007 10/09 A3026 RMK AO1 T01000090
KASL 220815Z AUTO 00000KT 10SM OVC007 10/09 A3026 RMK AO1 T01000090
KASL 220755Z AUTO 00000KT 10SM OVC007 10/09 A3026 RMK AO1 T01000090
KASL 220735Z AUTO 00000KT 10SM OVC009 10/09 A3026 RMK AO1 T01000088
KASL 220715Z AUTO 00000KT 10SM OVC007 10/09 A3026 RMK AO1 T01000090
KASL 220655Z AUTO 00000KT 10SM OVC007 10/09 A3026 RMK AO1 P0001 T01000090
KASL 220635Z AUTO 00000KT 10SM OVC007 10/09 A3026 RMK AO1 P0001 T01000090
KASL 220615Z AUTO 00000KT 10SM OVC007 10/09 A3025 RMK AO1 T01000090
KASL 220555Z AUTO 09003KT 10SM OVC005 10/09 A3024 RMK AO1 P0002 60029 T01000090 10127 20100 402110100
KASL 220535Z AUTO 10006KT 10SM OVC005 10/09 A3022 RMK AO1 P0002 T01000090
KASL 220515Z AUTO 10005KT 10SM BKN005 BKN017 OVC050 10/09 A3024 RMK AO1 P0002 T01000090
KASL 220455Z AUTO 09007KT 4SM SCT006 BKN050 OVC090 10/09 A3024 RMK AO1 P0017 T01000090
KASL 220435Z AUTO 06005KT 5SM SCT030 SCT042 OVC090 10/09 A3024 RMK AO1 P0012 T01000090
KASL 220415Z AUTO 06005KT 2SM SCT008 BKN034 OVC040 10/09 A3023 RMK AO1 P0007 T01000090
KASL 220355Z AUTO 06005KT 10SM SCT008 BKN032 OVC038 10/09 A3025 RMK AO1 P0004 T01000090
KASL 220035Z AUTO 32011G16KT 5SM OVC006 12/11 A3022 RMK AO1 P0001 T01200108
KASL 220015Z AUTO 35009KT 10SM OVC006 13/12 A3021 RMK AO1 T01270115
KASL 212355Z AUTO 34011G16KT 2SM OVC006 13/12 A3021 RMK AO1 P0020 60078 T01270115 10128 20127
KASL 212335Z AUTO 33006G14KT 1SM OVC006 13/12 A3021 RMK AO1 P0012 T01270115
KASL 212315Z AUTO 32007KT 4SM SCT008 BKN011 OVC016 13/12 A3018 RMK AO1 P0003 T01270115
KASL 212255Z AUTO 35006KT 1SM OVC008 13/12 A3017 RMK AO1 P0016 T01270115
KASL 212235Z AUTO 35006KT 5SM OVC008 13/12 A3015 RMK AO1 P0005 T01270115
KASL 212215Z AUTO 00000KT 3SM OVC008 13/12 A3013 RMK AO1 P0003 T01270115
KASL 212155Z AUTO 08005KT 1 3/4SM OVC008 13/12 A3013 RMK AO1 VIS 1V5 P0015 T01270115
KASL 212135Z AUTO 07009KT 050V130 4SM BKN008 OVC012 13/12 A3011 RMK AO1 P0008 T01270115
KASL 212115Z AUTO 07007KT 5SM OVC010 13/12 A3011 RMK AO1 P0003 T01270115
KASL 212055Z AUTO 07007KT 5SM OVC010 13/12 A3013 RMK AO1 P0005 60026 T01270115
KASL 212035Z AUTO 06009G16KT 030V110 7SM OVC010 13/11 A3013 RMK AO1 P0002 T01270113
KASL 212015Z AUTO 07005G16KT 040V110 7SM OVC010 13/11 A3014 RMK AO1 P0001 T01270114
KASL 211955Z AUTO 08007G16KT 7SM OVC010 13/12 A3015 RMK AO1 P0004 T01270115
KASL 211935Z AUTO 08010G18KT 7SM OVC008 13/12 A3016 RMK AO1 P0001 T01270115
KASL 211915Z AUTO 07012G17KT 10SM OVC008 13/12 A3015 RMK AO1 T01270115
KASL 211855Z AUTO 08010G15KT 10SM BKN010 OVC016 13/12 A3018 RMK AO1 P0017 T01270115